createdAt,value
2022-08-01T00:00:46.309Z,31.11
2022-08-01T00:03:50.904Z,31.84
2022-08-01T00:06:54.847Z,32.76
2022-08-01T00:09:58.830Z,32.99
2022-08-01T00:13:02.798Z,32.58
2022-08-01T00:16:06.760Z,31.84
2022-08-01T00:19:10.695Z,31.27
2022-08-01T00:22:14.545Z,30.80
2022-08-01T00:25:18.872Z,30.53
2022-08-01T00:28:23.107Z,30.32
2022-08-01T00:31:27.139Z,29.97
2022-08-01T00:34:30.894Z,29.94
2022-08-01T00:37:34.814Z,29.30
2022-08-01T00:40:39.389Z,28.68
2022-08-01T00:43:43.295Z,28.34
2022-08-01T00:46:47.446Z,28.06
2022-08-01T00:49:56.849Z,27.93
2022-08-01T00:53:01.707Z,27.82
2022-08-01T00:56:06.171Z,27.67
2022-08-01T00:59:11.060Z,27.67
2022-08-01T01:02:15.930Z,27.63
2022-08-01T01:05:20.286Z,27.71
2022-08-01T01:08:32.441Z,28.06
2022-08-01T01:11:43.341Z,28.51
2022-08-01T01:14:53.739Z,28.71
2022-08-01T01:18:04.415Z,28.62
2022-08-01T01:21:11.728Z,28.82
2022-08-01T01:24:34.313Z,28.77
2022-08-01T01:27:51.904Z,28.64
2022-08-01T01:30:57.530Z,28.64
2022-08-01T01:34:02.741Z,28.72
2022-08-01T01:37:08.658Z,28.49
2022-08-01T01:40:13.494Z,28.33
2022-08-01T01:43:18.714Z,28.23
2022-08-01T01:46:25.000Z,28.35
2022-08-01T01:49:30.367Z,28.53
2022-08-01T01:52:35.279Z,28.80
2022-08-01T01:55:49.265Z,29.24
2022-08-01T01:58:56.004Z,30.17
2022-08-01T02:02:08.963Z,30.46
2022-08-01T02:05:13.671Z,31.37
2022-08-01T02:08:18.704Z,31.49
2022-08-01T02:11:24.049Z,31.57
2022-08-01T02:14:31.133Z,32.24
2022-08-01T02:17:40.183Z,31.82
2022-08-01T02:20:44.133Z,30.49
2022-08-01T02:23:49.145Z,29.98
2022-08-01T02:26:56.592Z,29.81
2022-08-01T02:30:06.460Z,29.69
2022-08-01T02:33:22.877Z,29.57
2022-08-01T02:36:31.979Z,29.25
2022-08-01T02:39:38.690Z,29.01
2022-08-01T02:42:46.025Z,28.81
2022-08-01T02:45:52.046Z,28.66
2022-08-01T02:48:58.847Z,28.92
2022-08-01T02:52:06.530Z,29.60
2022-08-01T02:55:11.718Z,30.23
2022-08-01T02:58:17.799Z,29.76
2022-08-01T03:01:23.519Z,29.61
2022-08-01T03:04:31.253Z,29.57
2022-08-01T03:07:40.467Z,29.90
2022-08-01T03:10:46.875Z,29.73
2022-08-01T03:13:50.919Z,29.35
2022-08-01T03:16:56.192Z,29.42
2022-08-01T03:20:01.046Z,29.16
2022-08-01T03:23:10.932Z,29.50
2022-08-01T03:26:15.308Z,29.69
2022-08-01T03:29:21.665Z,29.78
2022-08-01T03:32:25.659Z,29.93
2022-08-01T03:35:32.691Z,29.92
2022-08-01T03:38:40.062Z,29.79
2022-08-01T03:41:45.669Z,29.61
2022-08-01T03:44:55.220Z,29.51
2022-08-01T03:48:03.669Z,29.58
2022-08-01T03:51:08.216Z,29.67
2022-08-01T03:54:13.074Z,29.59
2022-08-01T03:57:20.205Z,29.61
2022-08-01T04:00:41.791Z,29.41
2022-08-01T04:03:46.419Z,29.35
2022-08-01T04:06:55.559Z,29.31
2022-08-01T04:09:59.574Z,29.32
2022-08-01T04:13:04.259Z,29.32
2022-08-01T04:16:08.413Z,29.17
2022-08-01T04:19:12.697Z,28.91
2022-08-01T04:22:17.591Z,28.68
2022-08-01T04:25:29.343Z,28.25
2022-08-01T04:28:38.169Z,27.94
2022-08-01T04:31:44.254Z,27.77
2022-08-01T04:34:48.969Z,27.65
2022-08-01T04:37:53.723Z,27.54
2022-08-01T04:40:58.781Z,27.37
2022-08-01T04:44:04.739Z,27.20
2022-08-01T04:47:09.735Z,27.08
2022-08-01T04:50:13.623Z,26.51
2022-08-01T04:53:19.233Z,26.01
2022-08-01T04:56:23.513Z,25.60
2022-08-01T04:59:43.287Z,25.51
2022-08-01T05:02:48.408Z,25.52
2022-08-01T05:05:52.468Z,25.49
2022-08-01T05:08:56.277Z,25.49
2022-08-01T05:12:00.635Z,25.51
2022-08-01T05:15:05.379Z,25.61
2022-08-01T05:18:09.590Z,25.76
2022-08-01T05:21:13.895Z,26.00
2022-08-01T05:24:17.770Z,26.29
2022-08-01T05:27:21.977Z,26.52
2022-08-01T05:30:25.982Z,26.63
2022-08-01T05:33:30.323Z,26.48
2022-08-01T05:36:34.198Z,26.36
2022-08-01T05:39:38.354Z,26.29
2022-08-01T05:42:42.632Z,26.15
2022-08-01T05:45:47.660Z,25.86
2022-08-01T05:48:52.560Z,25.70
2022-08-01T05:51:58.026Z,25.62
2022-08-01T05:55:01.967Z,25.70
2022-08-01T05:58:06.241Z,25.70
2022-08-01T06:01:10.673Z,25.65
2022-08-01T06:04:15.202Z,25.53
2022-08-01T06:07:19.294Z,25.56
2022-08-01T06:10:23.315Z,25.54
2022-08-01T06:13:27.347Z,25.51
2022-08-01T06:16:31.534Z,25.52
2022-08-01T06:19:35.396Z,25.42
2022-08-01T06:22:40.158Z,25.39
2022-08-01T06:25:45.113Z,25.32
2022-08-01T06:28:49.259Z,25.29
2022-08-01T06:31:53.285Z,25.23
2022-08-01T06:34:57.653Z,25.16
2022-08-01T06:38:01.588Z,25.16
2022-08-01T06:41:05.547Z,25.15
2022-08-01T06:44:09.764Z,25.07
2022-08-01T06:47:13.524Z,25.00
2022-08-01T06:50:17.372Z,24.74
2022-08-01T06:53:24.667Z,24.69
2022-08-01T06:56:28.631Z,24.36
2022-08-01T06:59:32.454Z,24.35
2022-08-01T07:02:38.091Z,24.33
2022-08-01T07:05:41.767Z,24.33
2022-08-01T07:08:45.907Z,24.38
2022-08-01T07:11:50.311Z,24.37
2022-08-01T07:14:54.351Z,24.39
2022-08-01T07:17:58.895Z,24.46
2022-08-01T07:21:04.753Z,24.43
2022-08-01T07:24:15.122Z,24.40
2022-08-01T07:27:23.024Z,24.42
2022-08-01T07:30:28.484Z,24.43
2022-08-01T07:33:48.762Z,24.49
2022-08-01T07:36:54.171Z,24.47
2022-08-01T07:39:58.251Z,24.41
2022-08-01T07:43:02.539Z,24.43
2022-08-01T07:46:06.687Z,24.29
2022-08-01T07:49:10.888Z,24.14
2022-08-01T07:52:15.323Z,24.06
2022-08-01T07:55:19.420Z,24.06
2022-08-01T07:58:23.523Z,24.06
2022-08-01T08:01:28.656Z,24.07
2022-08-01T08:04:32.630Z,24.11
2022-08-01T08:07:36.622Z,24.20
2022-08-01T08:10:40.474Z,24.21
2022-08-01T08:13:45.521Z,24.23
2022-08-01T08:16:49.972Z,24.23
2022-08-01T08:19:53.987Z,24.23
2022-08-01T08:22:59.912Z,24.30
2022-08-01T08:26:03.806Z,24.33
2022-08-01T08:29:08.362Z,24.36
2022-08-01T08:32:12.910Z,24.40
2022-08-01T08:35:23.331Z,24.44
2022-08-01T08:38:40.952Z,24.44
2022-08-01T08:41:45.564Z,24.43
2022-08-01T08:44:56.238Z,24.48
2022-08-01T08:48:00.844Z,24.50
2022-08-01T08:51:05.289Z,24.60
2022-08-01T08:54:09.476Z,24.60
2022-08-01T08:57:15.605Z,24.54
2022-08-01T09:00:19.768Z,24.53
2022-08-01T09:03:23.415Z,24.52
2022-08-01T09:06:27.660Z,24.55
2022-08-01T09:09:31.463Z,24.60
2022-08-01T09:12:36.873Z,24.59
2022-08-01T09:15:45.935Z,24.62
2022-08-01T09:18:53.417Z,24.61
2022-08-01T09:21:59.299Z,24.59
2022-08-01T09:25:07.578Z,24.57
2022-08-01T09:28:12.047Z,24.56
2022-08-01T09:31:18.233Z,24.55
2022-08-01T09:34:29.499Z,24.51
2022-08-01T09:37:37.016Z,24.48
2022-08-01T09:41:09.278Z,24.53
2022-08-01T09:44:13.094Z,24.61
2022-08-01T09:47:18.432Z,24.66
2022-08-01T09:50:40.392Z,24.73
2022-08-01T09:53:51.382Z,24.75
2022-08-01T09:57:09.203Z,24.72
2022-08-01T10:00:43.761Z,24.68
2022-08-01T10:03:44.075Z,24.65
2022-08-01T10:06:51.366Z,24.61
2022-08-01T10:09:55.502Z,24.61
2022-08-01T10:13:00.903Z,24.58
2022-08-01T10:16:05.848Z,24.60
2022-08-01T10:19:11.354Z,24.58
2022-08-01T10:22:20.730Z,24.56
2022-08-01T10:25:42.585Z,24.53
2022-08-01T10:28:50.349Z,24.51
2022-08-01T10:31:54.563Z,24.46
2022-08-01T10:35:06.889Z,24.41
2022-08-01T10:38:13.851Z,24.38
2022-08-01T10:41:20.776Z,24.32
2022-08-01T10:44:26.390Z,24.30
2022-08-01T10:47:50.550Z,24.25
2022-08-01T10:50:56.422Z,24.25
2022-08-01T10:54:07.444Z,24.21
2022-08-01T10:57:14.217Z,24.15
2022-08-01T11:00:23.773Z,24.19
2022-08-01T11:03:56.873Z,24.18
2022-08-01T11:07:07.333Z,24.20
2022-08-01T11:10:17.417Z,24.11
2022-08-01T11:13:41.678Z,24.10
2022-08-01T11:16:46.562Z,24.06
2022-08-01T11:20:06.759Z,24.04
2022-08-01T11:23:14.499Z,24.07
2022-08-01T11:26:29.432Z,24.06
2022-08-01T11:29:34.033Z,24.03
2022-08-01T11:33:12.143Z,23.96
2022-08-01T11:36:22.254Z,23.86
2022-08-01T11:39:36.774Z,23.84
2022-08-01T11:42:42.833Z,23.79
2022-08-01T11:45:54.651Z,23.80
2022-08-01T11:49:18.011Z,23.91
2022-08-01T11:52:27.602Z,23.90
2022-08-01T11:55:32.508Z,23.91
2022-08-01T11:58:36.478Z,23.95
2022-08-01T12:01:40.517Z,23.92
2022-08-01T12:05:05.490Z,23.84
2022-08-01T12:08:12.405Z,23.94
2022-08-01T12:11:16.537Z,23.93
2022-08-01T12:14:21.695Z,23.87
2022-08-01T12:17:39.834Z,23.86
2022-08-01T12:20:56.913Z,23.81
2022-08-01T12:24:04.864Z,23.80
2022-08-01T12:27:11.497Z,23.77
2022-08-01T12:30:16.827Z,23.75
2022-08-01T12:33:22.355Z,23.64
2022-08-01T12:36:30.914Z,23.61
2022-08-01T12:39:35.451Z,23.61
2022-08-01T12:42:41.443Z,23.53
2022-08-01T12:45:56.615Z,23.51
2022-08-01T12:49:01.336Z,23.54
2022-08-01T12:52:09.144Z,23.51
2022-08-01T12:55:19.500Z,23.48
2022-08-01T12:58:23.795Z,23.42
2022-08-01T13:01:29.025Z,23.38
2022-08-01T13:04:33.182Z,23.31
2022-08-01T13:07:45.680Z,23.30
2022-08-01T13:10:51.132Z,23.27
2022-08-01T13:13:55.623Z,23.25
2022-08-01T13:16:59.752Z,23.22
2022-08-01T13:20:03.968Z,23.16
2022-08-01T13:23:23.453Z,23.07
2022-08-01T13:26:52.005Z,23.02
2022-08-01T13:29:56.480Z,23.05
2022-08-01T13:33:00.865Z,23.10
2022-08-01T13:36:04.946Z,23.05
2022-08-01T13:39:28.134Z,23.08
2022-08-01T13:42:32.173Z,23.03
2022-08-01T13:45:36.688Z,22.98
2022-08-01T13:48:41.050Z,22.95
2022-08-01T13:51:45.579Z,22.94
2022-08-01T13:54:49.329Z,22.91
2022-08-01T13:57:55.004Z,22.89
2022-08-01T14:00:59.319Z,22.87
2022-08-01T14:04:04.439Z,22.89
2022-08-01T14:07:14.189Z,22.90
2022-08-01T14:10:20.674Z,22.88
2022-08-01T14:13:25.150Z,22.94
2022-08-01T14:16:34.228Z,22.94
2022-08-01T14:19:41.235Z,22.96
2022-08-01T14:22:47.149Z,22.92
2022-08-01T14:26:03.286Z,22.85
2022-08-01T14:29:09.927Z,22.77
2022-08-01T14:32:14.357Z,22.69
2022-08-01T14:35:18.372Z,22.63
2022-08-01T14:38:32.418Z,22.57
2022-08-01T14:41:38.023Z,22.52
2022-08-01T14:44:49.723Z,22.49
2022-08-01T14:47:53.945Z,22.61
2022-08-01T14:50:58.221Z,22.61
2022-08-01T14:54:02.461Z,22.59
2022-08-01T14:57:08.225Z,22.52
2022-08-01T15:00:14.682Z,22.54
2022-08-01T15:03:18.393Z,22.42
2022-08-01T15:06:22.172Z,22.42
2022-08-01T15:09:28.531Z,22.49
2022-08-01T15:12:49.579Z,22.42
2022-08-01T15:15:54.092Z,22.37
2022-08-01T15:18:57.974Z,22.31
2022-08-01T15:22:02.282Z,22.33
2022-08-01T15:25:06.789Z,22.38
2022-08-01T15:28:11.424Z,22.37
2022-08-01T15:31:15.341Z,22.37
2022-08-01T15:34:19.373Z,22.32
2022-08-01T15:37:23.348Z,22.28
2022-08-01T15:40:28.425Z,22.30
2022-08-01T15:43:32.846Z,22.30
2022-08-01T15:46:36.629Z,22.26
2022-08-01T15:49:41.605Z,22.26
2022-08-01T15:52:45.353Z,22.23
2022-08-01T15:55:52.523Z,22.23
2022-08-01T15:58:57.085Z,22.30
2022-08-01T16:02:01.888Z,22.34
2022-08-01T16:05:06.112Z,22.30
2022-08-01T16:08:10.420Z,22.19
2022-08-01T16:11:14.484Z,22.16
2022-08-01T16:14:18.566Z,22.08
2022-08-01T16:17:22.883Z,22.07
2022-08-01T16:20:26.860Z,22.01
2022-08-01T16:23:31.112Z,21.99
2022-08-01T16:26:34.969Z,22.03
2022-08-01T16:29:39.289Z,22.01
2022-08-01T16:32:45.561Z,21.97
2022-08-01T16:35:55.891Z,21.98
2022-08-01T16:39:00.665Z,21.99
2022-08-01T16:42:04.311Z,21.92
2022-08-01T16:45:08.799Z,21.83
2022-08-01T16:48:19.311Z,21.79
2022-08-01T16:51:24.749Z,21.76
2022-08-01T16:54:29.063Z,21.78
2022-08-01T16:57:37.834Z,21.75
2022-08-01T17:00:45.344Z,21.69
2022-08-01T17:04:02.001Z,21.61
2022-08-01T17:07:06.694Z,21.58
2022-08-01T17:10:12.499Z,21.56
2022-08-01T17:13:16.277Z,21.60
2022-08-01T17:16:20.426Z,21.60
2022-08-01T17:19:26.901Z,21.62
2022-08-01T17:22:37.422Z,21.59
2022-08-01T17:25:41.610Z,21.63
2022-08-01T17:28:45.656Z,21.61
2022-08-01T17:31:49.855Z,21.60
2022-08-01T17:34:53.469Z,21.55
2022-08-01T17:37:57.417Z,21.49
2022-08-01T17:41:01.384Z,21.54
2022-08-01T17:44:05.665Z,21.58
2022-08-01T17:47:10.092Z,21.51
2022-08-01T17:50:14.293Z,21.45
2022-08-01T17:53:21.281Z,21.44
2022-08-01T17:56:25.970Z,21.39
2022-08-01T17:59:30.029Z,21.43
2022-08-01T18:02:33.828Z,21.48
2022-08-01T18:05:39.257Z,21.56
2022-08-01T18:08:43.502Z,21.54
2022-08-01T18:11:48.600Z,21.54
2022-08-01T18:14:53.103Z,21.54
2022-08-01T18:17:58.660Z,21.52
2022-08-01T18:21:03.348Z,21.50
2022-08-01T18:24:07.925Z,21.51
2022-08-01T18:27:11.841Z,21.56
2022-08-01T18:30:16.062Z,21.60
2022-08-01T18:33:19.890Z,21.62
2022-08-01T18:36:33.313Z,21.65
2022-08-01T18:39:38.173Z,21.67
2022-08-01T18:42:43.286Z,21.69
2022-08-01T18:45:47.169Z,21.66
2022-08-01T18:48:51.375Z,21.65
2022-08-01T18:51:55.164Z,21.62
2022-08-01T18:54:58.984Z,21.63
2022-08-01T18:58:03.241Z,21.63
2022-08-01T21:23:54.733Z,22.40
2022-08-01T21:26:58.869Z,22.62
2022-08-01T21:30:09.503Z,22.74
2022-08-01T21:33:13.948Z,22.81
2022-08-01T21:36:19.509Z,22.98
2022-08-01T21:39:23.602Z,23.03
2022-08-01T21:42:29.477Z,23.00
2022-08-01T21:45:33.861Z,23.05
2022-08-01T21:48:38.769Z,23.11
2022-08-01T21:51:53.689Z,23.05
2022-08-01T21:55:15.467Z,23.08
2022-08-01T21:58:32.766Z,23.15
2022-08-01T22:01:51.566Z,23.24
2022-08-01T22:05:07.586Z,23.33
2022-08-01T22:08:11.870Z,23.37
2022-08-01T22:11:19.583Z,23.22
2022-08-01T22:14:25.149Z,23.26
2022-08-01T22:17:29.438Z,23.39
2022-08-01T22:20:33.455Z,23.47
2022-08-01T22:23:37.832Z,23.60
2022-08-01T22:26:42.520Z,23.66
2022-08-01T22:29:47.764Z,23.79
2022-08-01T22:33:15.123Z,23.84
2022-08-01T22:36:15.531Z,23.88
2022-08-01T22:39:19.560Z,23.94
2022-08-01T22:42:27.124Z,23.95
2022-08-01T22:45:31.352Z,23.92
2022-08-01T22:48:45.435Z,23.96
2022-08-01T22:51:54.690Z,24.05
2022-08-01T22:55:05.645Z,24.05
2022-08-01T22:58:12.303Z,24.05
2022-08-01T23:01:22.272Z,24.10
2022-08-01T23:04:34.055Z,24.21
2022-08-01T23:07:42.351Z,24.23
2022-08-01T23:10:47.116Z,24.28
2022-08-01T23:13:52.668Z,24.25
2022-08-01T23:16:58.419Z,24.23
2022-08-01T23:20:04.230Z,24.29
2022-08-01T23:23:09.062Z,24.64
2022-08-01T23:26:13.005Z,24.91
2022-08-01T23:29:19.177Z,25.01
2022-08-01T23:32:23.852Z,25.33
2022-08-01T23:35:28.491Z,25.39
2022-08-01T23:38:32.548Z,25.51
2022-08-01T23:41:57.202Z,25.54
2022-08-01T23:45:01.056Z,25.60
2022-08-01T23:48:07.611Z,25.55
2022-08-01T23:51:23.945Z,25.63
2022-08-01T23:54:29.704Z,25.96
2022-08-01T23:57:41.260Z,26.04
